Terminal Aerodrome Forecast
Issued by NWS Cleveland, OH

Home | Current Version | Previous Version | Text Only | Print | Product List | Glossary Off
Versions: 1 2 3 4 5 6 7 8 9 10 11 12 13 14 15 16 17 18 19 20 21 22 23 24 25

000
FTUS41 KCLE 281737
TAFCLE
TAF
KCLE 281737Z 2818/2924 32015G25KT P6SM SCT015 BKN025 OVC035
     FM281900 32012G20KT P6SM SCT025 BKN035
     FM282300 30006KT P6SM SCT035
     FM290600 VRB03KT P6SM SCT250
     FM291100 17010KT P6SM BKN120 BKN200
     FM291800 12010KT P6SM VCSH BKN040 OVC080 PROB30 2920/2924 5SM
      -TSRA OVC040CB=

USA.gov is the U.S. government's official web portal to all federal, state and local government web resources and services.